Point O Woods, New York
Current Conditions -  °F | °C
As of 6:53 PM on Thursday 27 Nov 2014 (Local Time) from KFRG Reporting Station
Overcast Overcast  
Wind Chill: 31°   Ceiling: 1800
Heat Index: 38°   Visibility: 10mi
Dew Point: 30°   Wind: 9mph
Humidity: 73%   Direction: 330°NNW
Pressure: 30.03"   Gusts: NA
Location:  40.7379°N, 73.2632°W
Report Text: KFRG 272353Z 33008KT 10SM OVC018 03/M01 A3003 RMK AO2 SLP168 T00331011 10039 20033 53014
Loading
Personal Weather Stations






























Interactive Weather Map New forecast layout! Learn more

10-Day Weather Forecast

Advertisements
Track Severe Weather on mobile